sensor_id;sensor_type;location;lat;lon;timestamp;P1;durP1;ratioP1;P2;durP2;ratioP2
76292;SDS011;67256;51.154;4.164;2023-07-24T00:01:16;5.22;;;3.45;;
76292;SDS011;67256;51.154;4.164;2023-07-24T00:03:43;2.78;;;1.80;;
76292;SDS011;67256;51.154;4.164;2023-07-24T00:06:09;3.25;;;1.75;;
76292;SDS011;67256;51.154;4.164;2023-07-24T00:08:35;2.63;;;1.65;;
76292;SDS011;67256;51.154;4.164;2023-07-24T00:11:00;2.78;;;2.03;;
76292;SDS011;67256;51.154;4.164;2023-07-24T00:13:29;6.68;;;2.00;;
76292;SDS011;67256;51.154;4.164;2023-07-24T00:15:56;2.60;;;1.42;;
76292;SDS011;67256;51.154;4.164;2023-07-24T00:18:22;2.38;;;1.60;;
76292;SDS011;67256;51.154;4.164;2023-07-24T00:20:48;1.83;;;1.40;;
76292;SDS011;67256;51.154;4.164;2023-07-24T00:23:14;2.17;;;1.48;;
76292;SDS011;67256;51.154;4.164;2023-07-24T00:25:39;1.95;;;1.05;;
76292;SDS011;67256;51.154;4.164;2023-07-24T00:28:06;2.70;;;1.30;;
76292;SDS011;67256;51.154;4.164;2023-07-24T00:32:57;2.03;;;1.30;;
76292;SDS011;67256;51.154;4.164;2023-07-24T00:35:22;3.35;;;1.10;;
76292;SDS011;67256;51.154;4.164;2023-07-24T00:37:48;2.03;;;1.33;;
76292;SDS011;67256;51.154;4.164;2023-07-24T00:40:14;2.10;;;1.20;;
76292;SDS011;67256;51.154;4.164;2023-07-24T00:42:39;1.98;;;1.33;;
76292;SDS011;67256;51.154;4.164;2023-07-24T00:45:05;2.45;;;1.50;;
76292;SDS011;67256;51.154;4.164;2023-07-24T00:47:31;2.53;;;1.20;;
76292;SDS011;67256;51.154;4.164;2023-07-24T00:49:57;2.72;;;1.67;;
76292;SDS011;67256;51.154;4.164;2023-07-24T00:52:23;2.63;;;1.45;;
76292;SDS011;67256;51.154;4.164;2023-07-24T00:54:50;2.00;;;1.48;;
76292;SDS011;67256;51.154;4.164;2023-07-24T00:57:16;2.33;;;1.50;;
76292;SDS011;67256;51.154;4.164;2023-07-24T00:59:43;1.98;;;1.45;;
76292;SDS011;67256;51.154;4.164;2023-07-24T01:02:09;2.20;;;1.60;;
76292;SDS011;67256;51.154;4.164;2023-07-24T01:04:36;2.17;;;1.27;;
76292;SDS011;67256;51.154;4.164;2023-07-24T01:07:03;5.28;;;1.45;;
76292;SDS011;67256;51.154;4.164;2023-07-24T01:09:29;2.85;;;1.60;;
76292;SDS011;67256;51.154;4.164;2023-07-24T01:11:56;2.80;;;1.25;;
76292;SDS011;67256;51.154;4.164;2023-07-24T01:14:43;1.83;;;1.33;;
76292;SDS011;67256;51.154;4.164;2023-07-24T01:17:14;2.05;;;1.25;;
76292;SDS011;67256;51.154;4.164;2023-07-24T01:19:46;4.00;;;2.50;;
76292;SDS011;67256;51.154;4.164;2023-07-24T01:22:15;3.40;;;1.25;;
76292;SDS011;67256;51.154;4.164;2023-07-24T01:25:04;2.10;;;1.30;;
76292;SDS011;67256;51.154;4.164;2023-07-24T01:27:31;3.38;;;1.25;;
76292;SDS011;67256;51.154;4.164;2023-07-24T01:29:57;2.72;;;1.40;;
76292;SDS011;67256;51.154;4.164;2023-07-24T01:32:23;4.05;;;1.65;;
76292;SDS011;67256;51.154;4.164;2023-07-24T01:34:50;1.55;;;1.17;;
76292;SDS011;67256;51.154;4.164;2023-07-24T01:37:16;3.30;;;1.65;;
76292;SDS011;67256;51.154;4.164;2023-07-24T01:39:43;2.38;;;1.60;;
76292;SDS011;67256;51.154;4.164;2023-07-24T01:42:10;1.98;;;1.50;;
76292;SDS011;67256;51.154;4.164;2023-07-24T01:44:37;5.45;;;1.60;;
76292;SDS011;67256;51.154;4.164;2023-07-24T01:47:03;2.58;;;1.23;;
76292;SDS011;67256;51.154;4.164;2023-07-24T01:49:29;3.90;;;1.65;;
76292;SDS011;67256;51.154;4.164;2023-07-24T01:51:55;4.97;;;1.85;;
76292;SDS011;67256;51.154;4.164;2023-07-24T01:54:22;4.05;;;1.58;;
76292;SDS011;67256;51.154;4.164;2023-07-24T01:56:48;3.30;;;1.83;;
76292;SDS011;67256;51.154;4.164;2023-07-24T01:59:14;3.13;;;1.55;;
76292;SDS011;67256;51.154;4.164;2023-07-24T02:01:39;2.83;;;1.73;;
76292;SDS011;67256;51.154;4.164;2023-07-24T02:04:06;4.07;;;1.60;;
76292;SDS011;67256;51.154;4.164;2023-07-24T02:06:31;2.47;;;1.42;;
76292;SDS011;67256;51.154;4.164;2023-07-24T02:08:57;3.55;;;1.80;;
76292;SDS011;67256;51.154;4.164;2023-07-24T02:11:23;2.53;;;1.55;;
76292;SDS011;67256;51.154;4.164;2023-07-24T02:13:48;2.85;;;1.88;;
76292;SDS011;67256;51.154;4.164;2023-07-24T02:16:14;3.20;;;1.77;;
76292;SDS011;67256;51.154;4.164;2023-07-24T02:18:41;6.85;;;2.00;;
76292;SDS011;67256;51.154;4.164;2023-07-24T02:21:07;3.15;;;1.75;;
76292;SDS011;67256;51.154;4.164;2023-07-24T02:23:33;3.42;;;1.65;;
76292;SDS011;67256;51.154;4.164;2023-07-24T02:26:00;2.92;;;1.27;;
76292;SDS011;67256;51.154;4.164;2023-07-24T02:28:26;4.15;;;1.90;;
76292;SDS011;67256;51.154;4.164;2023-07-24T02:30:51;2.60;;;1.80;;
76292;SDS011;67256;51.154;4.164;2023-07-24T02:33:20;3.00;;;2.00;;
76292;SDS011;67256;51.154;4.164;2023-07-24T02:35:47;4.32;;;2.08;;
76292;SDS011;67256;51.154;4.164;2023-07-24T02:38:12;4.28;;;2.00;;
76292;SDS011;67256;51.154;4.164;2023-07-24T02:40:40;2.85;;;1.80;;
76292;SDS011;67256;51.154;4.164;2023-07-24T02:43:06;5.82;;;1.90;;
76292;SDS011;67256;51.154;4.164;2023-07-24T02:45:35;4.30;;;2.00;;
76292;SDS011;67256;51.154;4.164;2023-07-24T02:48:02;4.03;;;2.05;;
76292;SDS011;67256;51.154;4.164;2023-07-24T02:50:28;4.35;;;1.83;;
76292;SDS011;67256;51.154;4.164;2023-07-24T02:52:54;3.63;;;2.05;;
76292;SDS011;67256;51.154;4.164;2023-07-24T02:55:20;5.75;;;2.33;;
76292;SDS011;67256;51.154;4.164;2023-07-24T02:57:46;5.20;;;2.13;;
76292;SDS011;67256;51.154;4.164;2023-07-24T03:00:11;6.05;;;2.53;;
76292;SDS011;67256;51.154;4.164;2023-07-24T03:02:38;7.20;;;2.13;;
76292;SDS011;67256;51.154;4.164;2023-07-24T03:05:04;4.50;;;2.40;;
76292;SDS011;67256;51.154;4.164;2023-07-24T03:07:31;4.45;;;2.10;;
76292;SDS011;67256;51.154;4.164;2023-07-24T03:09:57;15.02;;;2.88;;
76292;SDS011;67256;51.154;4.164;2023-07-24T03:12:23;6.30;;;2.38;;
76292;SDS011;67256;51.154;4.164;2023-07-24T03:14:49;3.95;;;2.47;;
76292;SDS011;67256;51.154;4.164;2023-07-24T03:17:14;4.10;;;2.63;;
76292;SDS011;67256;51.154;4.164;2023-07-24T03:19:40;3.88;;;2.30;;
76292;SDS011;67256;51.154;4.164;2023-07-24T03:22:06;3.13;;;2.40;;
76292;SDS011;67256;51.154;4.164;2023-07-24T03:24:32;3.13;;;2.50;;
76292;SDS011;67256;51.154;4.164;2023-07-24T03:26:59;3.72;;;2.30;;
76292;SDS011;67256;51.154;4.164;2023-07-24T03:29:25;3.38;;;2.30;;
76292;SDS011;67256;51.154;4.164;2023-07-24T03:31:51;3.97;;;1.98;;
76292;SDS011;67256;51.154;4.164;2023-07-24T03:34:17;3.00;;;2.00;;
76292;SDS011;67256;51.154;4.164;2023-07-24T03:36:43;4.00;;;2.20;;
76292;SDS011;67256;51.154;4.164;2023-07-24T03:39:09;3.60;;;2.53;;
76292;SDS011;67256;51.154;4.164;2023-07-24T03:41:36;4.38;;;1.95;;
76292;SDS011;67256;51.154;4.164;2023-07-24T03:44:02;3.60;;;2.00;;
76292;SDS011;67256;51.154;4.164;2023-07-24T03:46:28;8.40;;;2.30;;
76292;SDS011;67256;51.154;4.164;2023-07-24T03:48:54;4.95;;;2.28;;
76292;SDS011;67256;51.154;4.164;2023-07-24T03:51:19;3.95;;;2.15;;
76292;SDS011;67256;51.154;4.164;2023-07-24T03:53:45;4.28;;;2.47;;
76292;SDS011;67256;51.154;4.164;2023-07-24T03:56:11;5.10;;;2.13;;
76292;SDS011;67256;51.154;4.164;2023-07-24T03:58:37;4.18;;;2.17;;
76292;SDS011;67256;51.154;4.164;2023-07-24T04:01:04;3.55;;;2.20;;
76292;SDS011;67256;51.154;4.164;2023-07-24T04:03:31;3.72;;;2.15;;
76292;SDS011;67256;51.154;4.164;2023-07-24T04:05:56;4.18;;;2.50;;
76292;SDS011;67256;51.154;4.164;2023-07-24T04:08:22;4.50;;;2.63;;
76292;SDS011;67256;51.154;4.164;2023-07-24T04:10:48;3.00;;;2.30;;
76292;SDS011;67256;51.154;4.164;2023-07-24T04:13:13;6.13;;;2.65;;
76292;SDS011;67256;51.154;4.164;2023-07-24T04:15:40;4.10;;;2.47;;
76292;SDS011;67256;51.154;4.164;2023-07-24T04:18:05;3.72;;;2.47;;
76292;SDS011;67256;51.154;4.164;2023-07-24T04:20:31;6.78;;;2.47;;
76292;SDS011;67256;51.154;4.164;2023-07-24T04:22:57;3.60;;;2.80;;
76292;SDS011;67256;51.154;4.164;2023-07-24T04:25:22;7.00;;;2.85;;
76292;SDS011;67256;51.154;4.164;2023-07-24T04:27:48;4.75;;;2.75;;
76292;SDS011;67256;51.154;4.164;2023-07-24T04:30:14;5.57;;;2.90;;
76292;SDS011;67256;51.154;4.164;2023-07-24T04:32:40;4.18;;;2.30;;
76292;SDS011;67256;51.154;4.164;2023-07-24T04:35:06;6.47;;;2.70;;
76292;SDS011;67256;51.154;4.164;2023-07-24T04:37:32;4.35;;;2.45;;
76292;SDS011;67256;51.154;4.164;2023-07-24T04:39:57;2.83;;;2.13;;
76292;SDS011;67256;51.154;4.164;2023-07-24T04:42:23;4.80;;;3.03;;
76292;SDS011;67256;51.154;4.164;2023-07-24T04:44:49;3.47;;;2.45;;
76292;SDS011;67256;51.154;4.164;2023-07-24T04:47:16;4.00;;;2.45;;
76292;SDS011;67256;51.154;4.164;2023-07-24T04:49:42;7.28;;;3.00;;
76292;SDS011;67256;51.154;4.164;2023-07-24T04:52:08;4.38;;;3.33;;
76292;SDS011;67256;51.154;4.164;2023-07-24T04:54:34;4.22;;;2.78;;
76292;SDS011;67256;51.154;4.164;2023-07-24T04:56:59;4.00;;;2.50;;
76292;SDS011;67256;51.154;4.164;2023-07-24T04:59:25;6.47;;;3.13;;
76292;SDS011;67256;51.154;4.164;2023-07-24T05:01:51;3.75;;;2.28;;
76292;SDS011;67256;51.154;4.164;2023-07-24T05:04:17;3.92;;;2.63;;
76292;SDS011;67256;51.154;4.164;2023-07-24T05:06:43;4.07;;;2.53;;
76292;SDS011;67256;51.154;4.164;2023-07-24T05:09:09;4.63;;;2.20;;
76292;SDS011;67256;51.154;4.164;2023-07-24T05:11:34;3.45;;;1.90;;
76292;SDS011;67256;51.154;4.164;2023-07-24T05:14:00;5.25;;;2.30;;
76292;SDS011;67256;51.154;4.164;2023-07-24T05:16:25;3.97;;;2.60;;
76292;SDS011;67256;51.154;4.164;2023-07-24T05:18:51;4.72;;;2.47;;
76292;SDS011;67256;51.154;4.164;2023-07-24T05:21:17;4.32;;;2.67;;
76292;SDS011;67256;51.154;4.164;2023-07-24T05:23:42;4.70;;;2.33;;
76292;SDS011;67256;51.154;4.164;2023-07-24T05:26:08;3.50;;;2.30;;
76292;SDS011;67256;51.154;4.164;2023-07-24T05:28:33;4.22;;;2.40;;
76292;SDS011;67256;51.154;4.164;2023-07-24T05:31:00;4.53;;;2.60;;
76292;SDS011;67256;51.154;4.164;2023-07-24T05:33:30;3.45;;;2.38;;
76292;SDS011;67256;51.154;4.164;2023-07-24T05:35:59;5.10;;;2.80;;
76292;SDS011;67256;51.154;4.164;2023-07-24T05:38:26;4.65;;;2.55;;
76292;SDS011;67256;51.154;4.164;2023-07-24T05:40:58;5.97;;;2.53;;
76292;SDS011;67256;51.154;4.164;2023-07-24T05:43:25;4.50;;;2.30;;
76292;SDS011;67256;51.154;4.164;2023-07-24T05:45:52;3.72;;;2.47;;
76292;SDS011;67256;51.154;4.164;2023-07-24T05:48:19;6.85;;;2.70;;
76292;SDS011;67256;51.154;4.164;2023-07-24T05:50:45;4.03;;;3.05;;
76292;SDS011;67256;51.154;4.164;2023-07-24T05:53:10;4.32;;;2.70;;
76292;SDS011;67256;51.154;4.164;2023-07-24T05:55:36;4.25;;;2.72;;
76292;SDS011;67256;51.154;4.164;2023-07-24T05:58:02;7.50;;;2.75;;
76292;SDS011;67256;51.154;4.164;2023-07-24T06:00:27;4.03;;;2.85;;
76292;SDS011;67256;51.154;4.164;2023-07-24T06:02:53;5.55;;;3.00;;
76292;SDS011;67256;51.154;4.164;2023-07-24T06:05:19;3.75;;;2.53;;
76292;SDS011;67256;51.154;4.164;2023-07-24T06:07:45;3.80;;;2.58;;
76292;SDS011;67256;51.154;4.164;2023-07-24T06:10:11;4.45;;;2.63;;
76292;SDS011;67256;51.154;4.164;2023-07-24T06:12:37;4.28;;;2.65;;
76292;SDS011;67256;51.154;4.164;2023-07-24T06:15:03;5.38;;;2.83;;
76292;SDS011;67256;51.154;4.164;2023-07-24T06:17:30;3.42;;;2.38;;
76292;SDS011;67256;51.154;4.164;2023-07-24T06:19:56;4.57;;;2.60;;
76292;SDS011;67256;51.154;4.164;2023-07-24T06:22:22;3.67;;;2.55;;
76292;SDS011;67256;51.154;4.164;2023-07-24T06:24:48;4.60;;;2.50;;
76292;SDS011;67256;51.154;4.164;2023-07-24T06:27:14;6.78;;;2.97;;
76292;SDS011;67256;51.154;4.164;2023-07-24T06:29:40;5.70;;;3.10;;
76292;SDS011;67256;51.154;4.164;2023-07-24T06:32:06;4.95;;;2.95;;
76292;SDS011;67256;51.154;4.164;2023-07-24T06:34:32;4.68;;;3.08;;
76292;SDS011;67256;51.154;4.164;2023-07-24T06:36:58;3.97;;;2.42;;
76292;SDS011;67256;51.154;4.164;2023-07-24T06:39:24;3.97;;;2.55;;
76292;SDS011;67256;51.154;4.164;2023-07-24T06:41:52;3.88;;;2.58;;
76292;SDS011;67256;51.154;4.164;2023-07-24T06:44:18;4.00;;;2.90;;
76292;SDS011;67256;51.154;4.164;2023-07-24T06:46:44;4.32;;;3.13;;
76292;SDS011;67256;51.154;4.164;2023-07-24T06:49:09;3.88;;;2.63;;
76292;SDS011;67256;51.154;4.164;2023-07-24T06:51:36;4.93;;;2.90;;
76292;SDS011;67256;51.154;4.164;2023-07-24T06:54:04;4.82;;;2.85;;
76292;SDS011;67256;51.154;4.164;2023-07-24T06:56:30;6.22;;;2.88;;
76292;SDS011;67256;51.154;4.164;2023-07-24T06:58:56;4.03;;;3.25;;
76292;SDS011;67256;51.154;4.164;2023-07-24T07:01:21;5.25;;;3.22;;
76292;SDS011;67256;51.154;4.164;2023-07-24T07:03:47;6.40;;;3.10;;
76292;SDS011;67256;51.154;4.164;2023-07-24T07:06:13;6.93;;;2.83;;
76292;SDS011;67256;51.154;4.164;2023-07-24T07:08:39;5.38;;;3.13;;
76292;SDS011;67256;51.154;4.164;2023-07-24T07:11:05;5.20;;;3.30;;
76292;SDS011;67256;51.154;4.164;2023-07-24T07:13:30;5.22;;;3.35;;
76292;SDS011;67256;51.154;4.164;2023-07-24T07:15:56;4.38;;;3.20;;
76292;SDS011;67256;51.154;4.164;2023-07-24T07:18:22;4.82;;;3.00;;
76292;SDS011;67256;51.154;4.164;2023-07-24T07:20:51;4.85;;;3.08;;
76292;SDS011;67256;51.154;4.164;2023-07-24T07:23:18;4.15;;;3.28;;
76292;SDS011;67256;51.154;4.164;2023-07-24T07:25:44;5.03;;;3.33;;
76292;SDS011;67256;51.154;4.164;2023-07-24T07:28:11;5.15;;;3.45;;
76292;SDS011;67256;51.154;4.164;2023-07-24T07:30:37;7.13;;;3.50;;
76292;SDS011;67256;51.154;4.164;2023-07-24T07:33:03;5.75;;;4.10;;
76292;SDS011;67256;51.154;4.164;2023-07-24T07:35:31;5.63;;;3.90;;
76292;SDS011;67256;51.154;4.164;2023-07-24T07:37:57;5.00;;;3.13;;
76292;SDS011;67256;51.154;4.164;2023-07-24T07:40:23;4.70;;;3.00;;
76292;SDS011;67256;51.154;4.164;2023-07-24T07:42:49;5.32;;;3.13;;
76292;SDS011;67256;51.154;4.164;2023-07-24T07:45:14;4.13;;;3.22;;
76292;SDS011;67256;51.154;4.164;2023-07-24T07:47:40;5.63;;;3.72;;
76292;SDS011;67256;51.154;4.164;2023-07-24T07:50:06;5.85;;;3.35;;
76292;SDS011;67256;51.154;4.164;2023-07-24T07:52:32;4.53;;;3.15;;
76292;SDS011;67256;51.154;4.164;2023-07-24T07:54:57;3.47;;;2.65;;
76292;SDS011;67256;51.154;4.164;2023-07-24T07:57:23;5.55;;;3.08;;
76292;SDS011;67256;51.154;4.164;2023-07-24T07:59:49;4.80;;;3.22;;
76292;SDS011;67256;51.154;4.164;2023-07-24T08:02:15;6.15;;;3.38;;
76292;SDS011;67256;51.154;4.164;2023-07-24T08:04:40;6.95;;;2.55;;
76292;SDS011;67256;51.154;4.164;2023-07-24T08:07:06;4.18;;;2.60;;
76292;SDS011;67256;51.154;4.164;2023-07-24T08:09:32;5.28;;;2.53;;
76292;SDS011;67256;51.154;4.164;2023-07-24T08:11:58;3.92;;;2.63;;
76292;SDS011;67256;51.154;4.164;2023-07-24T08:14:24;3.40;;;2.35;;
76292;SDS011;67256;51.154;4.164;2023-07-24T08:16:50;3.50;;;2.35;;
76292;SDS011;67256;51.154;4.164;2023-07-24T08:19:17;4.43;;;2.50;;
76292;SDS011;67256;51.154;4.164;2023-07-24T08:21:43;4.57;;;2.47;;
76292;SDS011;67256;51.154;4.164;2023-07-24T08:24:08;5.47;;;2.40;;
76292;SDS011;67256;51.154;4.164;2023-07-24T08:26:34;4.32;;;2.70;;
76292;SDS011;67256;51.154;4.164;2023-07-24T08:29:00;4.10;;;2.03;;
76292;SDS011;67256;51.154;4.164;2023-07-24T08:31:26;3.47;;;2.60;;
76292;SDS011;67256;51.154;4.164;2023-07-24T08:33:51;4.22;;;2.90;;
76292;SDS011;67256;51.154;4.164;2023-07-24T08:36:18;3.00;;;2.22;;
76292;SDS011;67256;51.154;4.164;2023-07-24T08:38:43;10.20;;;2.88;;
76292;SDS011;67256;51.154;4.164;2023-07-24T08:41:10;4.78;;;2.67;;
76292;SDS011;67256;51.154;4.164;2023-07-24T08:43:37;4.47;;;2.92;;
76292;SDS011;67256;51.154;4.164;2023-07-24T08:46:04;3.97;;;2.92;;
76292;SDS011;67256;51.154;4.164;2023-07-24T08:48:32;4.72;;;2.90;;
76292;SDS011;67256;51.154;4.164;2023-07-24T08:51:04;4.50;;;2.70;;
76292;SDS011;67256;51.154;4.164;2023-07-24T08:53:35;8.10;;;2.80;;
76292;SDS011;67256;51.154;4.164;2023-07-24T08:56:03;4.28;;;2.45;;
76292;SDS011;67256;51.154;4.164;2023-07-24T08:58:30;3.65;;;2.40;;
76292;SDS011;67256;51.154;4.164;2023-07-24T09:00:56;4.78;;;2.42;;
76292;SDS011;67256;51.154;4.164;2023-07-24T09:03:23;5.35;;;3.00;;
76292;SDS011;67256;51.154;4.164;2023-07-24T09:05:49;4.05;;;2.53;;
76292;SDS011;67256;51.154;4.164;2023-07-24T09:08:14;5.18;;;2.20;;
76292;SDS011;67256;51.154;4.164;2023-07-24T09:10:40;9.80;;;2.67;;
76292;SDS011;67256;51.154;4.164;2023-07-24T09:13:06;4.10;;;2.38;;
76292;SDS011;67256;51.154;4.164;2023-07-24T09:15:44;5.25;;;2.95;;
76292;SDS011;67256;51.154;4.164;2023-07-24T09:18:10;3.08;;;2.22;;
76292;SDS011;67256;51.154;4.164;2023-07-24T09:20:40;6.03;;;2.85;;
76292;SDS011;67256;51.154;4.164;2023-07-24T09:23:07;4.85;;;2.95;;
76292;SDS011;67256;51.154;4.164;2023-07-24T09:25:34;8.27;;;3.03;;
76292;SDS011;67256;51.154;4.164;2023-07-24T09:28:08;3.72;;;2.30;;
76292;SDS011;67256;51.154;4.164;2023-07-24T09:30:38;5.45;;;2.92;;
76292;SDS011;67256;51.154;4.164;2023-07-24T09:33:04;4.88;;;2.83;;
76292;SDS011;67256;51.154;4.164;2023-07-24T09:35:30;5.70;;;2.63;;
76292;SDS011;67256;51.154;4.164;2023-07-24T09:38:07;7.47;;;3.42;;
76292;SDS011;67256;51.154;4.164;2023-07-24T09:40:37;4.50;;;2.75;;
76292;SDS011;67256;51.154;4.164;2023-07-24T09:43:20;5.30;;;2.90;;
76292;SDS011;67256;51.154;4.164;2023-07-24T09:45:48;4.97;;;2.83;;
76292;SDS011;67256;51.154;4.164;2023-07-24T09:48:15;6.03;;;2.80;;
76292;SDS011;67256;51.154;4.164;2023-07-24T09:50:45;4.65;;;2.85;;
76292;SDS011;67256;51.154;4.164;2023-07-24T09:53:22;3.75;;;2.80;;
76292;SDS011;67256;51.154;4.164;2023-07-24T09:56:02;4.38;;;3.33;;
76292;SDS011;67256;51.154;4.164;2023-07-24T09:58:33;4.55;;;2.92;;
76292;SDS011;67256;51.154;4.164;2023-07-24T10:01:04;4.35;;;2.90;;
76292;SDS011;67256;51.154;4.164;2023-07-24T10:03:43;6.53;;;2.85;;
76292;SDS011;67256;51.154;4.164;2023-07-24T10:06:17;4.13;;;2.83;;
76292;SDS011;67256;51.154;4.164;2023-07-24T10:08:44;7.05;;;3.20;;
76292;SDS011;67256;51.154;4.164;2023-07-24T10:11:12;5.63;;;2.70;;
76292;SDS011;67256;51.154;4.164;2023-07-24T10:13:40;6.03;;;3.00;;
76292;SDS011;67256;51.154;4.164;2023-07-24T10:16:07;7.15;;;3.05;;
76292;SDS011;67256;51.154;4.164;2023-07-24T10:18:43;6.07;;;3.28;;
76292;SDS011;67256;51.154;4.164;2023-07-24T10:21:10;4.95;;;2.90;;
76292;SDS011;67256;51.154;4.164;2023-07-24T10:23:40;6.15;;;3.42;;
76292;SDS011;67256;51.154;4.164;2023-07-24T10:26:09;4.95;;;3.10;;
76292;SDS011;67256;51.154;4.164;2023-07-24T10:28:40;7.15;;;3.70;;
76292;SDS011;67256;51.154;4.164;2023-07-24T10:31:08;5.30;;;3.83;;
76292;SDS011;67256;51.154;4.164;2023-07-24T10:33:48;5.78;;;3.85;;
76292;SDS011;67256;51.154;4.164;2023-07-24T10:36:19;8.82;;;5.35;;
76292;SDS011;67256;51.154;4.164;2023-07-24T10:38:51;6.03;;;4.45;;
76292;SDS011;67256;51.154;4.164;2023-07-24T10:41:18;6.28;;;4.88;;
76292;SDS011;67256;51.154;4.164;2023-07-24T10:43:51;5.63;;;3.97;;
76292;SDS011;67256;51.154;4.164;2023-07-24T10:46:19;8.48;;;5.30;;
76292;SDS011;67256;51.154;4.164;2023-07-24T10:48:48;8.93;;;4.82;;
76292;SDS011;67256;51.154;4.164;2023-07-24T10:51:15;5.80;;;4.13;;
76292;SDS011;67256;51.154;4.164;2023-07-24T10:53:46;6.75;;;4.82;;
76292;SDS011;67256;51.154;4.164;2023-07-24T10:56:13;8.57;;;4.15;;
76292;SDS011;67256;51.154;4.164;2023-07-24T10:58:40;5.50;;;3.85;;
76292;SDS011;67256;51.154;4.164;2023-07-24T11:01:07;9.23;;;4.85;;
76292;SDS011;67256;51.154;4.164;2023-07-24T11:03:36;6.70;;;4.50;;
76292;SDS011;67256;51.154;4.164;2023-07-24T11:06:10;10.90;;;4.90;;
76292;SDS011;67256;51.154;4.164;2023-07-24T11:08:40;9.20;;;4.15;;
76292;SDS011;67256;51.154;4.164;2023-07-24T11:11:07;6.30;;;4.10;;
76292;SDS011;67256;51.154;4.164;2023-07-24T11:13:34;8.73;;;4.25;;
76292;SDS011;67256;51.154;4.164;2023-07-24T11:16:03;10.75;;;4.97;;
76292;SDS011;67256;51.154;4.164;2023-07-24T11:18:30;11.73;;;4.30;;
76292;SDS011;67256;51.154;4.164;2023-07-24T11:20:57;7.00;;;4.25;;
76292;SDS011;67256;51.154;4.164;2023-07-24T11:23:23;6.40;;;3.80;;
76292;SDS011;67256;51.154;4.164;2023-07-24T11:25:50;7.95;;;3.92;;
76292;SDS011;67256;51.154;4.164;2023-07-24T11:28:17;9.18;;;4.22;;
76292;SDS011;67256;51.154;4.164;2023-07-24T11:30:47;6.53;;;3.90;;
76292;SDS011;67256;51.154;4.164;2023-07-24T11:33:15;8.45;;;3.85;;
76292;SDS011;67256;51.154;4.164;2023-07-24T11:35:43;7.20;;;3.67;;
76292;SDS011;67256;51.154;4.164;2023-07-24T11:38:10;4.63;;;3.60;;
76292;SDS011;67256;51.154;4.164;2023-07-24T11:40:37;7.40;;;3.40;;
76292;SDS011;67256;51.154;4.164;2023-07-24T11:43:05;5.50;;;3.15;;
76292;SDS011;67256;51.154;4.164;2023-07-24T11:45:45;8.00;;;2.92;;
76292;SDS011;67256;51.154;4.164;2023-07-24T11:48:17;4.63;;;3.00;;
76292;SDS011;67256;51.154;4.164;2023-07-24T11:50:44;4.45;;;2.67;;
76292;SDS011;67256;51.154;4.164;2023-07-24T11:53:21;5.43;;;3.53;;
76292;SDS011;67256;51.154;4.164;2023-07-24T11:55:49;8.13;;;3.72;;
76292;SDS011;67256;51.154;4.164;2023-07-24T11:58:16;5.00;;;2.92;;
76292;SDS011;67256;51.154;4.164;2023-07-24T12:00:43;5.72;;;3.60;;
76292;SDS011;67256;51.154;4.164;2023-07-24T12:03:10;5.75;;;3.13;;
76292;SDS011;67256;51.154;4.164;2023-07-24T12:05:42;7.20;;;4.22;;
76292;SDS011;67256;51.154;4.164;2023-07-24T12:08:12;8.20;;;3.30;;
76292;SDS011;67256;51.154;4.164;2023-07-24T12:10:42;8.27;;;4.05;;
76292;SDS011;67256;51.154;4.164;2023-07-24T12:13:11;5.68;;;3.65;;
76292;SDS011;67256;51.154;4.164;2023-07-24T12:15:38;7.03;;;3.45;;
76292;SDS011;67256;51.154;4.164;2023-07-24T12:18:04;5.22;;;3.35;;
76292;SDS011;67256;51.154;4.164;2023-07-24T12:20:31;7.32;;;3.55;;
76292;SDS011;67256;51.154;4.164;2023-07-24T12:22:59;6.07;;;3.70;;
76292;SDS011;67256;51.154;4.164;2023-07-24T12:25:25;5.18;;;3.40;;
76292;SDS011;67256;51.154;4.164;2023-07-24T12:27:52;5.90;;;4.05;;
76292;SDS011;67256;51.154;4.164;2023-07-24T12:30:19;6.82;;;3.67;;
76292;SDS011;67256;51.154;4.164;2023-07-24T12:32:45;9.73;;;3.50;;
76292;SDS011;67256;51.154;4.164;2023-07-24T12:35:11;5.57;;;4.25;;
76292;SDS011;67256;51.154;4.164;2023-07-24T12:37:37;6.55;;;3.65;;
76292;SDS011;67256;51.154;4.164;2023-07-24T12:40:07;6.13;;;3.85;;
76292;SDS011;67256;51.154;4.164;2023-07-24T12:42:34;5.18;;;3.30;;
76292;SDS011;67256;51.154;4.164;2023-07-24T12:45:00;7.30;;;3.33;;
76292;SDS011;67256;51.154;4.164;2023-07-24T12:47:30;5.93;;;3.15;;
76292;SDS011;67256;51.154;4.164;2023-07-24T12:49:59;7.18;;;4.05;;
76292;SDS011;67256;51.154;4.164;2023-07-24T12:52:26;6.75;;;4.50;;
76292;SDS011;67256;51.154;4.164;2023-07-24T12:54:53;9.38;;;3.72;;
76292;SDS011;67256;51.154;4.164;2023-07-24T12:57:19;7.88;;;4.55;;
76292;SDS011;67256;51.154;4.164;2023-07-24T12:59:45;6.40;;;3.42;;
76292;SDS011;67256;51.154;4.164;2023-07-24T13:02:11;6.28;;;3.28;;
76292;SDS011;67256;51.154;4.164;2023-07-24T13:04:37;7.80;;;3.60;;
76292;SDS011;67256;51.154;4.164;2023-07-24T13:07:04;6.28;;;4.10;;
76292;SDS011;67256;51.154;4.164;2023-07-24T13:09:31;9.82;;;4.35;;
76292;SDS011;67256;51.154;4.164;2023-07-24T13:11:57;6.53;;;4.50;;
76292;SDS011;67256;51.154;4.164;2023-07-24T13:14:23;7.18;;;4.35;;
76292;SDS011;67256;51.154;4.164;2023-07-24T13:16:49;8.18;;;5.20;;
76292;SDS011;67256;51.154;4.164;2023-07-24T13:19:16;7.13;;;5.05;;
76292;SDS011;67256;51.154;4.164;2023-07-24T13:21:42;8.40;;;5.07;;
76292;SDS011;67256;51.154;4.164;2023-07-24T13:24:08;10.60;;;5.95;;
76292;SDS011;67256;51.154;4.164;2023-07-24T13:26:35;8.00;;;5.43;;
76292;SDS011;67256;51.154;4.164;2023-07-24T13:29:02;7.25;;;5.15;;
76292;SDS011;67256;51.154;4.164;2023-07-24T13:31:29;6.78;;;4.90;;
76292;SDS011;67256;51.154;4.164;2023-07-24T13:33:57;11.70;;;5.80;;
76292;SDS011;67256;51.154;4.164;2023-07-24T13:36:23;11.20;;;5.78;;
76292;SDS011;67256;51.154;4.164;2023-07-24T13:38:48;11.35;;;5.82;;
76292;SDS011;67256;51.154;4.164;2023-07-24T13:41:15;9.43;;;7.22;;
76292;SDS011;67256;51.154;4.164;2023-07-24T13:43:41;10.70;;;7.88;;
76292;SDS011;67256;51.154;4.164;2023-07-24T13:46:08;8.45;;;6.85;;
76292;SDS011;67256;51.154;4.164;2023-07-24T13:48:34;8.80;;;6.72;;
76292;SDS011;67256;51.154;4.164;2023-07-24T13:51:00;13.40;;;8.75;;
76292;SDS011;67256;51.154;4.164;2023-07-24T13:53:26;11.35;;;8.48;;
76292;SDS011;67256;51.154;4.164;2023-07-24T13:55:53;12.80;;;9.55;;
76292;SDS011;67256;51.154;4.164;2023-07-24T13:58:19;12.48;;;9.85;;
76292;SDS011;67256;51.154;4.164;2023-07-24T14:00:45;14.45;;;10.38;;
76292;SDS011;67256;51.154;4.164;2023-07-24T14:03:11;15.18;;;10.60;;
76292;SDS011;67256;51.154;4.164;2023-07-24T14:05:37;13.25;;;10.65;;
76292;SDS011;67256;51.154;4.164;2023-07-24T14:08:03;12.73;;;9.30;;
76292;SDS011;67256;51.154;4.164;2023-07-24T14:10:29;10.52;;;7.90;;
76292;SDS011;67256;51.154;4.164;2023-07-24T14:12:55;10.00;;;6.22;;
76292;SDS011;67256;51.154;4.164;2023-07-24T14:15:24;6.32;;;4.22;;
76292;SDS011;67256;51.154;4.164;2023-07-24T14:17:50;7.78;;;5.20;;
76292;SDS011;67256;51.154;4.164;2023-07-24T14:20:16;7.20;;;4.00;;
76292;SDS011;67256;51.154;4.164;2023-07-24T14:22:41;7.30;;;3.65;;
76292;SDS011;67256;51.154;4.164;2023-07-24T14:25:08;6.68;;;3.40;;
76292;SDS011;67256;51.154;4.164;2023-07-24T14:27:35;5.28;;;3.20;;
76292;SDS011;67256;51.154;4.164;2023-07-24T14:30:01;6.22;;;3.20;;
76292;SDS011;67256;51.154;4.164;2023-07-24T14:32:27;5.95;;;3.50;;
76292;SDS011;67256;51.154;4.164;2023-07-24T14:34:53;6.15;;;3.33;;
76292;SDS011;67256;51.154;4.164;2023-07-24T14:37:19;5.60;;;3.47;;
76292;SDS011;67256;51.154;4.164;2023-07-24T14:39:45;9.02;;;3.70;;
76292;SDS011;67256;51.154;4.164;2023-07-24T14:42:11;8.05;;;3.85;;
76292;SDS011;67256;51.154;4.164;2023-07-24T14:44:38;5.25;;;3.35;;
76292;SDS011;67256;51.154;4.164;2023-07-24T14:47:04;5.57;;;3.58;;
76292;SDS011;67256;51.154;4.164;2023-07-24T14:49:32;7.75;;;4.18;;